sensor_id;sensor_type;location;lat;lon;timestamp;P1;durP1;ratioP1;P2;durP2;ratioP2
12878;SDS011;20617;49.476;10.986;2022-12-18T00:03:57;106.75;;;59.42;;
12878;SDS011;20617;49.476;10.986;2022-12-18T00:06:05;103.85;;;57.05;;
12878;SDS011;20617;49.476;10.986;2022-12-18T00:08:10;104.25;;;58.65;;
12878;SDS011;20617;49.476;10.986;2022-12-18T00:10:18;107.00;;;58.70;;
12878;SDS011;20617;49.476;10.986;2022-12-18T00:12:23;105.20;;;57.38;;
12878;SDS011;20617;49.476;10.986;2022-12-18T00:14:30;117.43;;;62.35;;
12878;SDS011;20617;49.476;10.986;2022-12-18T00:16:36;118.50;;;61.83;;
12878;SDS011;20617;49.476;10.986;2022-12-18T00:18:44;112.05;;;61.95;;
12878;SDS011;20617;49.476;10.986;2022-12-18T00:20:49;117.25;;;60.72;;
12878;SDS011;20617;49.476;10.986;2022-12-18T00:22:54;108.75;;;57.42;;
12878;SDS011;20617;49.476;10.986;2022-12-18T00:24:59;102.43;;;56.35;;
12878;SDS011;20617;49.476;10.986;2022-12-18T00:27:04;111.72;;;58.38;;
12878;SDS011;20617;49.476;10.986;2022-12-18T00:29:11;109.20;;;59.25;;
12878;SDS011;20617;49.476;10.986;2022-12-18T00:31:18;107.88;;;57.53;;
12878;SDS011;20617;49.476;10.986;2022-12-18T00:33:27;101.15;;;56.67;;
12878;SDS011;20617;49.476;10.986;2022-12-18T00:35:34;107.07;;;59.38;;
12878;SDS011;20617;49.476;10.986;2022-12-18T00:37:39;105.53;;;57.33;;
12878;SDS011;20617;49.476;10.986;2022-12-18T00:39:47;103.53;;;56.33;;
12878;SDS011;20617;49.476;10.986;2022-12-18T00:41:54;104.28;;;56.25;;
12878;SDS011;20617;49.476;10.986;2022-12-18T00:44:12;108.30;;;55.95;;
12878;SDS011;20617;49.476;10.986;2022-12-18T00:46:19;97.18;;;54.58;;
12878;SDS011;20617;49.476;10.986;2022-12-18T00:48:24;103.68;;;57.78;;
12878;SDS011;20617;49.476;10.986;2022-12-18T00:52:39;103.60;;;54.00;;
12878;SDS011;20617;49.476;10.986;2022-12-18T00:54:44;98.22;;;53.78;;
12878;SDS011;20617;49.476;10.986;2022-12-18T00:56:49;101.45;;;58.40;;
12878;SDS011;20617;49.476;10.986;2022-12-18T00:58:54;94.70;;;53.20;;
12878;SDS011;20617;49.476;10.986;2022-12-18T01:00:58;96.10;;;52.45;;
12878;SDS011;20617;49.476;10.986;2022-12-18T01:05:09;91.38;;;49.25;;
12878;SDS011;20617;49.476;10.986;2022-12-18T01:07:15;94.10;;;51.33;;
12878;SDS011;20617;49.476;10.986;2022-12-18T01:09:22;89.97;;;49.65;;
12878;SDS011;20617;49.476;10.986;2022-12-18T01:11:27;87.20;;;47.17;;
12878;SDS011;20617;49.476;10.986;2022-12-18T01:13:32;85.38;;;46.20;;
12878;SDS011;20617;49.476;10.986;2022-12-18T01:15:38;76.97;;;43.88;;
12878;SDS011;20617;49.476;10.986;2022-12-18T01:17:44;82.00;;;44.63;;
12878;SDS011;20617;49.476;10.986;2022-12-18T01:19:49;82.38;;;46.58;;
12878;SDS011;20617;49.476;10.986;2022-12-18T01:23:59;77.90;;;41.67;;
12878;SDS011;20617;49.476;10.986;2022-12-18T01:28:12;90.05;;;43.80;;
12878;SDS011;20617;49.476;10.986;2022-12-18T01:30:17;86.32;;;40.85;;
12878;SDS011;20617;49.476;10.986;2022-12-18T01:34:27;88.68;;;36.65;;
12878;SDS011;20617;49.476;10.986;2022-12-18T01:36:32;83.70;;;40.22;;
12878;SDS011;20617;49.476;10.986;2022-12-18T01:38:39;94.88;;;37.83;;
12878;SDS011;20617;49.476;10.986;2022-12-18T01:40:43;83.45;;;39.33;;
12878;SDS011;20617;49.476;10.986;2022-12-18T01:42:52;81.50;;;39.70;;
12878;SDS011;20617;49.476;10.986;2022-12-18T01:44:59;93.05;;;41.13;;
12878;SDS011;20617;49.476;10.986;2022-12-18T01:47:03;84.90;;;37.75;;
12878;SDS011;20617;49.476;10.986;2022-12-18T01:49:08;91.25;;;39.08;;
12878;SDS011;20617;49.476;10.986;2022-12-18T01:51:16;88.55;;;37.80;;
12878;SDS011;20617;49.476;10.986;2022-12-18T01:53:21;85.60;;;37.35;;
12878;SDS011;20617;49.476;10.986;2022-12-18T01:55:28;92.03;;;36.72;;
12878;SDS011;20617;49.476;10.986;2022-12-18T01:57:37;85.80;;;40.47;;
12878;SDS011;20617;49.476;10.986;2022-12-18T01:59:47;106.65;;;39.92;;
12878;SDS011;20617;49.476;10.986;2022-12-18T02:01:55;110.22;;;39.80;;
12878;SDS011;20617;49.476;10.986;2022-12-18T02:04:16;80.93;;;37.10;;
12878;SDS011;20617;49.476;10.986;2022-12-18T02:06:27;92.93;;;39.22;;
12878;SDS011;20617;49.476;10.986;2022-12-18T02:08:38;92.07;;;38.17;;
12878;SDS011;20617;49.476;10.986;2022-12-18T02:10:51;88.72;;;38.85;;
12878;SDS011;20617;49.476;10.986;2022-12-18T02:13:02;88.05;;;39.58;;
12878;SDS011;20617;49.476;10.986;2022-12-18T02:15:22;67.90;;;30.38;;
12878;SDS011;20617;49.476;10.986;2022-12-18T02:17:32;68.20;;;31.25;;
12878;SDS011;20617;49.476;10.986;2022-12-18T02:19:46;83.22;;;37.33;;
12878;SDS011;20617;49.476;10.986;2022-12-18T02:22:02;92.38;;;39.88;;
12878;SDS011;20617;49.476;10.986;2022-12-18T02:24:26;80.00;;;37.80;;
12878;SDS011;20617;49.476;10.986;2022-12-18T02:26:40;64.47;;;29.70;;
12878;SDS011;20617;49.476;10.986;2022-12-18T02:28:53;79.30;;;38.50;;
12878;SDS011;20617;49.476;10.986;2022-12-18T02:31:04;77.03;;;37.25;;
12878;SDS011;20617;49.476;10.986;2022-12-18T02:33:13;82.10;;;37.55;;
12878;SDS011;20617;49.476;10.986;2022-12-18T02:35:20;77.65;;;37.17;;
12878;SDS011;20617;49.476;10.986;2022-12-18T02:37:31;82.15;;;36.72;;
12878;SDS011;20617;49.476;10.986;2022-12-18T02:39:40;86.78;;;39.38;;
12878;SDS011;20617;49.476;10.986;2022-12-18T02:41:51;83.28;;;36.67;;
12878;SDS011;20617;49.476;10.986;2022-12-18T02:44:00;84.35;;;38.38;;
12878;SDS011;20617;49.476;10.986;2022-12-18T02:46:20;76.97;;;35.17;;
12878;SDS011;20617;49.476;10.986;2022-12-18T02:48:33;80.85;;;36.10;;
12878;SDS011;20617;49.476;10.986;2022-12-18T02:50:41;75.25;;;35.60;;
12878;SDS011;20617;49.476;10.986;2022-12-18T02:52:52;75.38;;;33.60;;
12878;SDS011;20617;49.476;10.986;2022-12-18T02:55:11;84.30;;;36.75;;
12878;SDS011;20617;49.476;10.986;2022-12-18T02:57:37;80.03;;;36.67;;
12878;SDS011;20617;49.476;10.986;2022-12-18T02:59:49;73.45;;;34.83;;
12878;SDS011;20617;49.476;10.986;2022-12-18T03:02:04;81.95;;;35.45;;
12878;SDS011;20617;49.476;10.986;2022-12-18T03:04:22;76.43;;;35.83;;
12878;SDS011;20617;49.476;10.986;2022-12-18T03:06:32;76.90;;;33.83;;
12878;SDS011;20617;49.476;10.986;2022-12-18T03:08:42;77.55;;;33.78;;
12878;SDS011;20617;49.476;10.986;2022-12-18T03:10:51;74.78;;;34.92;;
12878;SDS011;20617;49.476;10.986;2022-12-18T03:13:06;86.68;;;36.95;;
12878;SDS011;20617;49.476;10.986;2022-12-18T03:15:17;75.55;;;34.28;;
12878;SDS011;20617;49.476;10.986;2022-12-18T03:17:32;78.88;;;35.33;;
12878;SDS011;20617;49.476;10.986;2022-12-18T03:19:38;78.90;;;34.17;;
12878;SDS011;20617;49.476;10.986;2022-12-18T03:21:45;79.03;;;35.38;;
12878;SDS011;20617;49.476;10.986;2022-12-18T03:23:53;68.00;;;32.25;;
12878;SDS011;20617;49.476;10.986;2022-12-18T03:26:02;74.70;;;31.38;;
12878;SDS011;20617;49.476;10.986;2022-12-18T03:28:16;68.47;;;31.02;;
12878;SDS011;20617;49.476;10.986;2022-12-18T03:30:33;66.72;;;31.85;;
12878;SDS011;20617;49.476;10.986;2022-12-18T03:32:42;71.97;;;32.10;;
12878;SDS011;20617;49.476;10.986;2022-12-18T03:34:53;68.70;;;33.92;;
12878;SDS011;20617;49.476;10.986;2022-12-18T03:37:06;69.93;;;32.83;;
12878;SDS011;20617;49.476;10.986;2022-12-18T03:39:11;69.25;;;32.55;;
12878;SDS011;20617;49.476;10.986;2022-12-18T03:41:24;64.82;;;31.02;;
12878;SDS011;20617;49.476;10.986;2022-12-18T03:43:52;73.88;;;32.78;;
12878;SDS011;20617;49.476;10.986;2022-12-18T03:46:11;73.22;;;30.27;;
12878;SDS011;20617;49.476;10.986;2022-12-18T03:48:23;68.13;;;32.00;;
12878;SDS011;20617;49.476;10.986;2022-12-18T03:50:45;67.05;;;30.90;;
12878;SDS011;20617;49.476;10.986;2022-12-18T03:52:56;72.30;;;30.90;;
12878;SDS011;20617;49.476;10.986;2022-12-18T03:55:07;68.93;;;31.25;;
12878;SDS011;20617;49.476;10.986;2022-12-18T03:57:15;65.07;;;31.45;;
12878;SDS011;20617;49.476;10.986;2022-12-18T03:59:28;66.63;;;30.73;;
12878;SDS011;20617;49.476;10.986;2022-12-18T04:01:35;69.35;;;31.83;;
12878;SDS011;20617;49.476;10.986;2022-12-18T04:03:46;63.85;;;30.42;;
12878;SDS011;20617;49.476;10.986;2022-12-18T04:05:54;68.88;;;32.40;;
12878;SDS011;20617;49.476;10.986;2022-12-18T04:08:02;68.20;;;30.58;;
12878;SDS011;20617;49.476;10.986;2022-12-18T04:10:11;68.95;;;30.90;;
12878;SDS011;20617;49.476;10.986;2022-12-18T04:12:19;60.08;;;29.73;;
12878;SDS011;20617;49.476;10.986;2022-12-18T04:14:23;60.60;;;31.00;;
12878;SDS011;20617;49.476;10.986;2022-12-18T04:16:33;71.03;;;31.88;;
12878;SDS011;20617;49.476;10.986;2022-12-18T04:18:40;65.93;;;30.73;;
12878;SDS011;20617;49.476;10.986;2022-12-18T04:20:45;65.93;;;30.45;;
12878;SDS011;20617;49.476;10.986;2022-12-18T04:22:51;57.72;;;30.00;;
12878;SDS011;20617;49.476;10.986;2022-12-18T04:24:57;59.80;;;29.58;;
12878;SDS011;20617;49.476;10.986;2022-12-18T04:27:11;55.03;;;27.48;;
12878;SDS011;20617;49.476;10.986;2022-12-18T04:29:21;56.97;;;26.00;;
12878;SDS011;20617;49.476;10.986;2022-12-18T04:33:33;54.42;;;27.02;;
12878;SDS011;20617;49.476;10.986;2022-12-18T04:35:41;50.22;;;25.45;;
12878;SDS011;20617;49.476;10.986;2022-12-18T04:37:47;47.97;;;25.67;;
12878;SDS011;20617;49.476;10.986;2022-12-18T04:42:05;50.95;;;24.85;;
12878;SDS011;20617;49.476;10.986;2022-12-18T04:44:10;49.15;;;24.88;;
12878;SDS011;20617;49.476;10.986;2022-12-18T04:48:20;46.97;;;23.58;;
12878;SDS011;20617;49.476;10.986;2022-12-18T04:50:29;56.85;;;27.05;;
12878;SDS011;20617;49.476;10.986;2022-12-18T04:52:45;50.13;;;23.95;;
12878;SDS011;20617;49.476;10.986;2022-12-18T04:54:50;49.88;;;23.85;;
12878;SDS011;20617;49.476;10.986;2022-12-18T04:56:54;51.38;;;25.38;;
12878;SDS011;20617;49.476;10.986;2022-12-18T04:59:00;50.00;;;24.20;;
12878;SDS011;20617;49.476;10.986;2022-12-18T05:01:05;48.13;;;25.17;;
12878;SDS011;20617;49.476;10.986;2022-12-18T05:03:11;46.50;;;24.88;;
12878;SDS011;20617;49.476;10.986;2022-12-18T05:05:16;51.05;;;25.27;;
12878;SDS011;20617;49.476;10.986;2022-12-18T05:09:28;46.28;;;23.33;;
12878;SDS011;20617;49.476;10.986;2022-12-18T05:11:36;53.05;;;25.13;;
12878;SDS011;20617;49.476;10.986;2022-12-18T05:13:41;51.45;;;26.45;;
12878;SDS011;20617;49.476;10.986;2022-12-18T05:15:50;51.78;;;24.65;;
12878;SDS011;20617;49.476;10.986;2022-12-18T05:17:55;54.70;;;27.30;;
12878;SDS011;20617;49.476;10.986;2022-12-18T05:20:01;53.97;;;25.52;;
12878;SDS011;20617;49.476;10.986;2022-12-18T05:22:09;49.97;;;25.52;;
12878;SDS011;20617;49.476;10.986;2022-12-18T05:24:16;48.80;;;25.00;;
12878;SDS011;20617;49.476;10.986;2022-12-18T05:26:21;56.53;;;28.77;;
12878;SDS011;20617;49.476;10.986;2022-12-18T05:28:27;52.53;;;24.90;;
12878;SDS011;20617;49.476;10.986;2022-12-18T05:30:32;52.30;;;25.63;;
12878;SDS011;20617;49.476;10.986;2022-12-18T05:32:37;46.13;;;25.10;;
12878;SDS011;20617;49.476;10.986;2022-12-18T05:34:43;49.33;;;24.35;;
12878;SDS011;20617;49.476;10.986;2022-12-18T05:36:47;50.75;;;26.02;;
12878;SDS011;20617;49.476;10.986;2022-12-18T05:40:59;56.22;;;26.75;;
12878;SDS011;20617;49.476;10.986;2022-12-18T05:43:04;51.08;;;25.35;;
12878;SDS011;20617;49.476;10.986;2022-12-18T05:45:10;48.53;;;23.88;;
12878;SDS011;20617;49.476;10.986;2022-12-18T05:47:15;49.80;;;25.90;;
12878;SDS011;20617;49.476;10.986;2022-12-18T05:49:20;47.85;;;25.05;;
12878;SDS011;20617;49.476;10.986;2022-12-18T05:51:24;51.67;;;24.55;;
12878;SDS011;20617;49.476;10.986;2022-12-18T05:53:29;48.47;;;24.10;;
12878;SDS011;20617;49.476;10.986;2022-12-18T05:55:34;51.13;;;24.90;;
12878;SDS011;20617;49.476;10.986;2022-12-18T05:57:43;47.47;;;25.55;;
12878;SDS011;20617;49.476;10.986;2022-12-18T05:59:48;50.70;;;24.58;;
12878;SDS011;20617;49.476;10.986;2022-12-18T06:01:53;48.85;;;25.52;;
12878;SDS011;20617;49.476;10.986;2022-12-18T06:03:58;51.42;;;25.75;;
12878;SDS011;20617;49.476;10.986;2022-12-18T06:06:04;46.85;;;23.83;;
12878;SDS011;20617;49.476;10.986;2022-12-18T06:08:16;49.78;;;25.67;;
12878;SDS011;20617;49.476;10.986;2022-12-18T06:10:21;47.10;;;24.70;;
12878;SDS011;20617;49.476;10.986;2022-12-18T06:12:26;48.00;;;23.98;;
12878;SDS011;20617;49.476;10.986;2022-12-18T06:14:33;54.45;;;27.33;;
12878;SDS011;20617;49.476;10.986;2022-12-18T06:16:38;50.88;;;24.95;;
12878;SDS011;20617;49.476;10.986;2022-12-18T06:20:53;51.38;;;25.08;;
12878;SDS011;20617;49.476;10.986;2022-12-18T06:22:59;51.38;;;24.48;;
12878;SDS011;20617;49.476;10.986;2022-12-18T06:25:04;47.70;;;25.23;;
12878;SDS011;20617;49.476;10.986;2022-12-18T06:27:10;51.97;;;25.27;;
12878;SDS011;20617;49.476;10.986;2022-12-18T06:29:15;47.53;;;25.52;;
12878;SDS011;20617;49.476;10.986;2022-12-18T06:31:23;49.78;;;24.58;;
12878;SDS011;20617;49.476;10.986;2022-12-18T06:33:28;49.97;;;25.08;;
12878;SDS011;20617;49.476;10.986;2022-12-18T06:35:33;46.63;;;23.55;;
12878;SDS011;20617;49.476;10.986;2022-12-18T06:37:37;45.00;;;23.25;;
12878;SDS011;20617;49.476;10.986;2022-12-18T06:39:42;49.22;;;23.83;;
12878;SDS011;20617;49.476;10.986;2022-12-18T06:41:47;54.25;;;25.60;;
12878;SDS011;20617;49.476;10.986;2022-12-18T06:43:52;45.38;;;23.30;;
12878;SDS011;20617;49.476;10.986;2022-12-18T06:46:00;52.67;;;24.90;;
12878;SDS011;20617;49.476;10.986;2022-12-18T06:48:09;43.47;;;21.63;;
12878;SDS011;20617;49.476;10.986;2022-12-18T06:50:14;51.60;;;24.50;;
12878;SDS011;20617;49.476;10.986;2022-12-18T06:52:19;49.28;;;23.58;;
12878;SDS011;20617;49.476;10.986;2022-12-18T06:54:23;45.40;;;22.15;;
12878;SDS011;20617;49.476;10.986;2022-12-18T06:56:28;49.63;;;24.15;;
12878;SDS011;20617;49.476;10.986;2022-12-18T06:58:33;56.58;;;28.35;;
12878;SDS011;20617;49.476;10.986;2022-12-18T07:00:38;53.53;;;27.10;;
12878;SDS011;20617;49.476;10.986;2022-12-18T07:02:43;48.63;;;25.67;;
12878;SDS011;20617;49.476;10.986;2022-12-18T07:04:54;51.83;;;26.80;;
12878;SDS011;20617;49.476;10.986;2022-12-18T07:06:59;48.40;;;23.67;;
12878;SDS011;20617;49.476;10.986;2022-12-18T07:09:04;52.47;;;25.60;;
12878;SDS011;20617;49.476;10.986;2022-12-18T07:11:08;47.55;;;24.50;;
12878;SDS011;20617;49.476;10.986;2022-12-18T07:13:13;53.13;;;26.15;;
12878;SDS011;20617;49.476;10.986;2022-12-18T07:17:23;48.72;;;24.02;;
12878;SDS011;20617;49.476;10.986;2022-12-18T07:19:28;48.67;;;23.05;;
12878;SDS011;20617;49.476;10.986;2022-12-18T07:21:36;47.30;;;24.70;;
12878;SDS011;20617;49.476;10.986;2022-12-18T07:23:41;51.40;;;25.88;;
12878;SDS011;20617;49.476;10.986;2022-12-18T07:25:49;52.67;;;25.95;;
12878;SDS011;20617;49.476;10.986;2022-12-18T07:27:54;53.13;;;26.52;;
12878;SDS011;20617;49.476;10.986;2022-12-18T07:29:59;49.22;;;24.58;;
12878;SDS011;20617;49.476;10.986;2022-12-18T07:32:07;51.35;;;24.15;;
12878;SDS011;20617;49.476;10.986;2022-12-18T07:34:13;46.60;;;23.90;;
12878;SDS011;20617;49.476;10.986;2022-12-18T07:36:18;48.60;;;23.77;;
12878;SDS011;20617;49.476;10.986;2022-12-18T07:38:29;47.90;;;23.55;;
12878;SDS011;20617;49.476;10.986;2022-12-18T07:40:34;46.13;;;22.42;;
12878;SDS011;20617;49.476;10.986;2022-12-18T07:42:39;48.75;;;24.10;;
12878;SDS011;20617;49.476;10.986;2022-12-18T07:44:44;45.15;;;23.90;;
12878;SDS011;20617;49.476;10.986;2022-12-18T07:46:49;48.63;;;24.50;;
12878;SDS011;20617;49.476;10.986;2022-12-18T07:48:54;48.08;;;24.05;;
12878;SDS011;20617;49.476;10.986;2022-12-18T07:50:58;47.75;;;25.02;;
12878;SDS011;20617;49.476;10.986;2022-12-18T07:53:04;51.80;;;23.73;;
12878;SDS011;20617;49.476;10.986;2022-12-18T07:55:11;49.70;;;24.45;;
12878;SDS011;20617;49.476;10.986;2022-12-18T07:57:16;51.63;;;23.75;;
12878;SDS011;20617;49.476;10.986;2022-12-18T07:59:41;42.88;;;23.55;;
12878;SDS011;20617;49.476;10.986;2022-12-18T08:01:46;51.15;;;25.65;;
12878;SDS011;20617;49.476;10.986;2022-12-18T08:03:51;49.35;;;23.67;;
12878;SDS011;20617;49.476;10.986;2022-12-18T08:05:58;48.95;;;24.77;;
12878;SDS011;20617;49.476;10.986;2022-12-18T08:08:03;48.97;;;23.98;;
12878;SDS011;20617;49.476;10.986;2022-12-18T08:12:16;48.40;;;23.20;;
12878;SDS011;20617;49.476;10.986;2022-12-18T08:14:20;47.85;;;25.33;;
12878;SDS011;20617;49.476;10.986;2022-12-18T08:16:25;49.97;;;25.83;;
12878;SDS011;20617;49.476;10.986;2022-12-18T08:18:31;46.38;;;23.75;;
12878;SDS011;20617;49.476;10.986;2022-12-18T08:20:39;49.00;;;24.23;;
12878;SDS011;20617;49.476;10.986;2022-12-18T08:22:47;44.97;;;23.52;;
12878;SDS011;20617;49.476;10.986;2022-12-18T08:24:52;48.08;;;24.85;;
12878;SDS011;20617;49.476;10.986;2022-12-18T08:26:59;49.20;;;24.55;;
12878;SDS011;20617;49.476;10.986;2022-12-18T08:29:24;47.55;;;25.13;;
12878;SDS011;20617;49.476;10.986;2022-12-18T08:33:35;45.47;;;22.70;;
12878;SDS011;20617;49.476;10.986;2022-12-18T08:35:42;38.30;;;19.80;;
12878;SDS011;20617;49.476;10.986;2022-12-18T08:37:46;45.83;;;23.40;;
12878;SDS011;20617;49.476;10.986;2022-12-18T08:41:59;41.13;;;21.35;;
12878;SDS011;20617;49.476;10.986;2022-12-18T08:44:16;39.45;;;20.50;;
12878;SDS011;20617;49.476;10.986;2022-12-18T08:46:35;37.65;;;19.50;;
12878;SDS011;20617;49.476;10.986;2022-12-18T08:48:41;43.85;;;22.67;;
12878;SDS011;20617;49.476;10.986;2022-12-18T08:50:53;38.63;;;20.15;;
12878;SDS011;20617;49.476;10.986;2022-12-18T08:52:58;36.83;;;20.02;;
12878;SDS011;20617;49.476;10.986;2022-12-18T08:57:12;35.80;;;20.33;;
12878;SDS011;20617;49.476;10.986;2022-12-18T08:59:17;33.40;;;18.30;;
12878;SDS011;20617;49.476;10.986;2022-12-18T09:01:23;39.72;;;20.63;;
12878;SDS011;20617;49.476;10.986;2022-12-18T09:03:28;37.42;;;20.55;;
12878;SDS011;20617;49.476;10.986;2022-12-18T09:05:34;35.15;;;19.48;;
12878;SDS011;20617;49.476;10.986;2022-12-18T09:07:41;34.95;;;19.13;;
12878;SDS011;20617;49.476;10.986;2022-12-18T09:09:46;38.67;;;19.77;;
12878;SDS011;20617;49.476;10.986;2022-12-18T09:11:51;37.08;;;20.90;;
12878;SDS011;20617;49.476;10.986;2022-12-18T09:13:59;33.85;;;20.05;;
12878;SDS011;20617;49.476;10.986;2022-12-18T09:16:05;40.85;;;21.33;;
12878;SDS011;20617;49.476;10.986;2022-12-18T09:18:11;38.22;;;20.55;;
12878;SDS011;20617;49.476;10.986;2022-12-18T09:20:17;35.25;;;19.48;;
12878;SDS011;20617;49.476;10.986;2022-12-18T09:22:22;35.25;;;19.33;;
12878;SDS011;20617;49.476;10.986;2022-12-18T09:24:29;39.00;;;20.10;;
12878;SDS011;20617;49.476;10.986;2022-12-18T09:26:37;38.63;;;20.58;;
12878;SDS011;20617;49.476;10.986;2022-12-18T09:28:47;35.17;;;20.23;;
12878;SDS011;20617;49.476;10.986;2022-12-18T09:30:54;35.10;;;20.15;;
12878;SDS011;20617;49.476;10.986;2022-12-18T09:32:59;38.95;;;20.30;;
12878;SDS011;20617;49.476;10.986;2022-12-18T09:35:07;40.53;;;21.15;;
12878;SDS011;20617;49.476;10.986;2022-12-18T09:39:16;36.92;;;20.58;;
12878;SDS011;20617;49.476;10.986;2022-12-18T09:41:37;37.33;;;20.25;;
12878;SDS011;20617;49.476;10.986;2022-12-18T09:43:46;39.30;;;21.10;;
12878;SDS011;20617;49.476;10.986;2022-12-18T09:45:58;38.83;;;20.77;;
12878;SDS011;20617;49.476;10.986;2022-12-18T09:48:05;45.05;;;21.85;;
12878;SDS011;20617;49.476;10.986;2022-12-18T09:50:17;37.63;;;19.73;;
12878;SDS011;20617;49.476;10.986;2022-12-18T09:52:32;37.75;;;18.65;;
12878;SDS011;20617;49.476;10.986;2022-12-18T09:54:40;31.50;;;18.33;;
12878;SDS011;20617;49.476;10.986;2022-12-18T09:56:46;35.17;;;20.25;;
12878;SDS011;20617;49.476;10.986;2022-12-18T09:58:53;31.27;;;18.52;;
12878;SDS011;20617;49.476;10.986;2022-12-18T10:01:06;30.00;;;17.52;;
12878;SDS011;20617;49.476;10.986;2022-12-18T10:03:17;34.83;;;18.85;;
12878;SDS011;20617;49.476;10.986;2022-12-18T10:05:25;35.85;;;18.52;;
12878;SDS011;20617;49.476;10.986;2022-12-18T10:07:41;33.35;;;18.67;;
12878;SDS011;20617;49.476;10.986;2022-12-18T10:12:07;34.20;;;17.88;;
12878;SDS011;20617;49.476;10.986;2022-12-18T10:14:18;32.88;;;18.67;;
12878;SDS011;20617;49.476;10.986;2022-12-18T10:16:31;37.15;;;20.50;;
12878;SDS011;20617;49.476;10.986;2022-12-18T10:21:18;36.42;;;19.08;;
12878;SDS011;20617;49.476;10.986;2022-12-18T10:23:30;32.97;;;18.85;;
12878;SDS011;20617;49.476;10.986;2022-12-18T10:25:51;38.03;;;20.77;;
12878;SDS011;20617;49.476;10.986;2022-12-18T10:28:00;40.97;;;23.05;;
12878;SDS011;20617;49.476;10.986;2022-12-18T10:30:15;39.83;;;22.48;;
12878;SDS011;20617;49.476;10.986;2022-12-18T10:32:24;34.47;;;20.25;;
12878;SDS011;20617;49.476;10.986;2022-12-18T10:34:31;35.60;;;19.60;;
12878;SDS011;20617;49.476;10.986;2022-12-18T10:36:37;35.67;;;18.88;;
12878;SDS011;20617;49.476;10.986;2022-12-18T10:38:42;31.75;;;18.23;;
12878;SDS011;20617;49.476;10.986;2022-12-18T10:43:02;39.60;;;20.25;;
12878;SDS011;20617;49.476;10.986;2022-12-18T10:45:16;38.95;;;19.95;;
12878;SDS011;20617;49.476;10.986;2022-12-18T10:47:24;34.00;;;18.95;;
12878;SDS011;20617;49.476;10.986;2022-12-18T10:49:29;33.72;;;18.42;;
12878;SDS011;20617;49.476;10.986;2022-12-18T10:51:38;34.00;;;18.50;;
12878;SDS011;20617;49.476;10.986;2022-12-18T10:53:44;33.65;;;19.35;;
12878;SDS011;20617;49.476;10.986;2022-12-18T10:58:13;31.25;;;17.42;;
12878;SDS011;20617;49.476;10.986;2022-12-18T11:00:28;33.38;;;18.58;;
12878;SDS011;20617;49.476;10.986;2022-12-18T11:02:37;37.25;;;20.50;;
12878;SDS011;20617;49.476;10.986;2022-12-18T11:04:49;33.92;;;19.50;;
12878;SDS011;20617;49.476;10.986;2022-12-18T11:06:57;35.25;;;18.88;;
12878;SDS011;20617;49.476;10.986;2022-12-18T11:09:04;35.42;;;18.92;;
12878;SDS011;20617;49.476;10.986;2022-12-18T11:11:22;36.10;;;18.08;;
12878;SDS011;20617;49.476;10.986;2022-12-18T11:13:29;34.95;;;18.02;;
12878;SDS011;20617;49.476;10.986;2022-12-18T11:15:35;32.80;;;18.88;;
12878;SDS011;20617;49.476;10.986;2022-12-18T11:17:44;37.05;;;19.15;;
12878;SDS011;20617;49.476;10.986;2022-12-18T11:19:52;32.90;;;19.08;;
12878;SDS011;20617;49.476;10.986;2022-12-18T11:21:58;34.00;;;18.70;;
12878;SDS011;20617;49.476;10.986;2022-12-18T11:24:06;32.70;;;18.35;;
12878;SDS011;20617;49.476;10.986;2022-12-18T11:26:24;34.78;;;19.60;;
12878;SDS011;20617;49.476;10.986;2022-12-18T11:28:43;32.53;;;17.65;;
12878;SDS011;20617;49.476;10.986;2022-12-18T11:30:50;31.38;;;17.65;;
12878;SDS011;20617;49.476;10.986;2022-12-18T11:33:19;24.38;;;14.38;;
12878;SDS011;20617;49.476;10.986;2022-12-18T11:35:31;34.13;;;18.98;;
12878;SDS011;20617;49.476;10.986;2022-12-18T11:37:45;32.45;;;17.33;;
12878;SDS011;20617;49.476;10.986;2022-12-18T11:39:54;38.00;;;19.75;;
12878;SDS011;20617;49.476;10.986;2022-12-18T11:42:04;36.75;;;19.98;;
12878;SDS011;20617;49.476;10.986;2022-12-18T11:44:15;40.03;;;19.30;;
12878;SDS011;20617;49.476;10.986;2022-12-18T11:46:27;35.63;;;18.50;;
12878;SDS011;20617;49.476;10.986;2022-12-18T11:48:44;35.05;;;19.13;;
12878;SDS011;20617;49.476;10.986;2022-12-18T11:50:54;37.00;;;20.77;;
12878;SDS011;20617;49.476;10.986;2022-12-18T11:53:00;38.65;;;20.23;;
12878;SDS011;20617;49.476;10.986;2022-12-18T11:55:10;35.67;;;20.15;;
12878;SDS011;20617;49.476;10.986;2022-12-18T11:57:19;39.15;;;21.10;;
12878;SDS011;20617;49.476;10.986;2022-12-18T11:59:36;38.40;;;19.48;;
12878;SDS011;20617;49.476;10.986;2022-12-18T12:01:48;37.55;;;20.60;;
12878;SDS011;20617;49.476;10.986;2022-12-18T12:04:03;32.42;;;18.00;;
12878;SDS011;20617;49.476;10.986;2022-12-18T12:06:27;36.22;;;20.10;;
12878;SDS011;20617;49.476;10.986;2022-12-18T12:08:48;37.88;;;21.25;;
12878;SDS011;20617;49.476;10.986;2022-12-18T12:11:01;37.50;;;20.52;;
12878;SDS011;20617;49.476;10.986;2022-12-18T12:13:15;38.20;;;19.50;;
12878;SDS011;20617;49.476;10.986;2022-12-18T12:15:32;33.95;;;18.70;;
12878;SDS011;20617;49.476;10.986;2022-12-18T12:17:44;39.17;;;20.83;;
12878;SDS011;20617;49.476;10.986;2022-12-18T12:19:59;39.38;;;20.08;;
12878;SDS011;20617;49.476;10.986;2022-12-18T12:22:15;35.88;;;19.48;;
12878;SDS011;20617;49.476;10.986;2022-12-18T12:24:29;39.20;;;20.63;;
12878;SDS011;20617;49.476;10.986;2022-12-18T12:26:43;38.92;;;19.58;;
12878;SDS011;20617;49.476;10.986;2022-12-18T12:29:00;34.30;;;19.90;;
12878;SDS011;20617;49.476;10.986;2022-12-18T12:31:13;34.88;;;18.63;;
12878;SDS011;20617;49.476;10.986;2022-12-18T12:33:33;35.85;;;18.98;;
12878;SDS011;20617;49.476;10.986;2022-12-18T12:35:52;36.33;;;20.45;;
12878;SDS011;20617;49.476;10.986;2022-12-18T12:38:06;36.88;;;20.48;;
12878;SDS011;20617;49.476;10.986;2022-12-18T12:40:16;41.53;;;19.83;;
12878;SDS011;20617;49.476;10.986;2022-12-18T12:42:47;39.38;;;20.27;;
12878;SDS011;20617;49.476;10.986;2022-12-18T12:45:13;37.30;;;21.02;;
12878;SDS011;20617;49.476;10.986;2022-12-18T12:47:23;37.03;;;19.52;;
12878;SDS011;20617;49.476;10.986;2022-12-18T12:49:31;36.67;;;20.27;;
12878;SDS011;20617;49.476;10.986;2022-12-18T12:51:47;37.55;;;20.17;;
12878;SDS011;20617;49.476;10.986;2022-12-18T12:53:59;36.17;;;21.05;;
12878;SDS011;20617;49.476;10.986;2022-12-18T12:56:07;35.25;;;19.75;;
12878;SDS011;20617;49.476;10.986;2022-12-18T12:58:16;34.72;;;19.13;;
12878;SDS011;20617;49.476;10.986;2022-12-18T13:00:30;36.78;;;20.50;;
12878;SDS011;20617;49.476;10.986;2022-12-18T13:02:44;43.05;;;23.05;;
12878;SDS011;20617;49.476;10.986;2022-12-18T13:04:56;41.72;;;21.42;;
12878;SDS011;20617;49.476;10.986;2022-12-18T13:07:10;39.20;;;20.88;;
12878;SDS011;20617;49.476;10.986;2022-12-18T13:09:20;39.13;;;20.80;;
12878;SDS011;20617;49.476;10.986;2022-12-18T13:11:29;39.50;;;20.48;;